createdAt,value
2019-03-29T00:01:41.866Z,15.03
2019-03-29T00:04:09.821Z,15.73
2019-03-29T00:06:37.847Z,15.30
2019-03-29T00:09:06.717Z,10.97
2019-03-29T00:11:34.787Z,13.70
2019-03-29T00:14:02.767Z,13.73
2019-03-29T00:16:30.746Z,16.90
2019-03-29T00:18:58.706Z,15.97
2019-03-29T00:21:26.721Z,12.83
2019-03-29T00:24:06.129Z,12.93
2019-03-29T00:26:25.538Z,13.07
2019-03-29T00:28:53.702Z,14.30
2019-03-29T00:31:21.661Z,13.13
2019-03-29T00:33:50.077Z,13.73
2019-03-29T00:36:18.177Z,13.30
2019-03-29T00:38:46.161Z,13.83
2019-03-29T00:41:14.126Z,16.30
2019-03-29T00:43:42.236Z,14.17
2019-03-29T00:46:10.217Z,12.97
2019-03-29T00:48:38.176Z,13.37
2019-03-29T00:51:06.184Z,13.10
2019-03-29T00:53:34.136Z,15.90
2019-03-29T00:56:02.442Z,16.13
2019-03-29T00:58:30.398Z,15.73
2019-03-29T01:00:58.371Z,15.57
2019-03-29T01:03:26.822Z,12.03
2019-03-29T01:05:54.776Z,15.63
2019-03-29T01:08:22.767Z,15.87
2019-03-29T01:10:50.712Z,13.53
2019-03-29T01:13:18.709Z,16.00
2019-03-29T01:15:46.651Z,17.63
2019-03-29T01:18:15.247Z,14.97
2019-03-29T01:20:43.208Z,13.73
2019-03-29T01:23:11.176Z,17.60
2019-03-29T01:25:39.107Z,13.10
2019-03-29T01:28:07.101Z,17.67
2019-03-29T01:30:35.207Z,17.63
2019-03-29T01:33:03.307Z,14.77
2019-03-29T01:35:33.287Z,15.77
2019-03-29T01:38:01.267Z,17.40
2019-03-29T01:40:29.182Z,15.37
2019-03-29T01:42:57.191Z,18.37
2019-03-29T01:45:25.237Z,15.00
2019-03-29T01:47:53.267Z,16.27
2019-03-29T01:50:21.169Z,15.47
2019-03-29T01:52:49.141Z,17.30
2019-03-29T01:55:17.153Z,15.87
2019-03-29T01:57:45.145Z,16.50
2019-03-29T02:00:17.378Z,15.73
2019-03-29T02:02:45.352Z,15.77
2019-03-29T02:05:13.289Z,15.33
2019-03-29T02:07:43.222Z,14.27
2019-03-29T02:10:11.336Z,18.07
2019-03-29T02:12:39.323Z,15.53
2019-03-29T02:15:07.698Z,15.60
2019-03-29T02:17:35.847Z,18.63
2019-03-29T02:20:04.427Z,16.00
2019-03-29T02:22:32.417Z,16.97
2019-03-29T02:25:00.445Z,17.37
2019-03-29T02:27:28.602Z,18.37
2019-03-29T02:29:56.637Z,19.00
2019-03-29T02:32:25.157Z,19.33
2019-03-29T02:34:53.617Z,23.30
2019-03-29T02:37:21.587Z,17.20
2019-03-29T02:39:49.559Z,17.83
2019-03-29T02:42:17.506Z,18.80
2019-03-29T02:44:45.472Z,18.20
2019-03-29T02:47:13.418Z,17.33
2019-03-29T02:49:41.398Z,17.73
2019-03-29T02:52:09.415Z,20.77
2019-03-29T02:54:37.693Z,15.97
2019-03-29T02:57:05.744Z,17.50
2019-03-29T02:59:33.727Z,18.87
2019-03-29T03:02:01.664Z,19.67
2019-03-29T03:04:29.649Z,22.40
2019-03-29T03:06:57.668Z,17.17
2019-03-29T03:09:25.739Z,23.10
2019-03-29T03:11:53.785Z,18.83
2019-03-29T03:14:22.316Z,19.93
2019-03-29T03:16:50.289Z,21.33
2019-03-29T03:19:18.339Z,22.40
2019-03-29T03:21:46.285Z,20.77
2019-03-29T03:24:14.259Z,21.80
2019-03-29T03:26:42.243Z,21.60
2019-03-29T03:29:10.224Z,20.77
2019-03-29T03:31:38.216Z,17.83
2019-03-29T03:34:06.305Z,18.70
2019-03-29T03:36:34.261Z,16.67
2019-03-29T03:39:02.570Z,20.10
2019-03-29T03:41:30.553Z,19.03
2019-03-29T03:43:59.094Z,20.80
2019-03-29T03:46:27.021Z,18.37
2019-03-29T03:48:55.034Z,18.60
2019-03-29T03:51:23.101Z,17.43
2019-03-29T03:53:51.389Z,19.80
2019-03-29T03:56:19.450Z,21.70
2019-03-29T03:58:47.770Z,16.97
2019-03-29T04:01:15.718Z,19.43
2019-03-29T04:03:43.910Z,17.90
2019-03-29T04:06:11.828Z,19.33
2019-03-29T04:08:39.817Z,18.07
2019-03-29T04:11:07.753Z,19.50
2019-03-29T04:13:35.703Z,17.87
2019-03-29T04:16:04.804Z,17.33
2019-03-29T04:18:32.742Z,18.83
2019-03-29T04:21:00.733Z,20.17
2019-03-29T04:23:28.698Z,24.00
2019-03-29T04:25:56.692Z,16.77
2019-03-29T04:28:24.627Z,19.03
2019-03-29T04:30:52.622Z,19.47
2019-03-29T04:33:20.570Z,21.47
2019-03-29T04:35:50.200Z,19.27
2019-03-29T04:38:20.496Z,17.97
2019-03-29T04:40:49.116Z,18.23
2019-03-29T04:43:17.077Z,19.43
2019-03-29T04:45:45.172Z,19.73
2019-03-29T04:48:13.114Z,20.60
2019-03-29T04:50:41.101Z,19.27
2019-03-29T04:53:09.121Z,20.50
2019-03-29T04:55:37.174Z,18.57
2019-03-29T04:58:05.393Z,18.87
2019-03-29T05:00:33.382Z,18.40
2019-03-29T05:03:01.347Z,20.83
2019-03-29T05:05:29.347Z,17.77
2019-03-29T05:07:57.277Z,22.13
2019-03-29T05:10:25.262Z,17.33
2019-03-29T05:12:53.648Z,20.87
2019-03-29T05:15:21.719Z,20.20
2019-03-29T05:17:49.757Z,17.90
2019-03-29T05:20:17.783Z,19.83
2019-03-29T05:22:45.706Z,20.03
2019-03-29T05:25:13.717Z,19.67
2019-03-29T05:27:44.317Z,17.93
2019-03-29T05:30:12.400Z,20.33
2019-03-29T05:32:40.347Z,22.23
2019-03-29T05:35:08.337Z,16.80
2019-03-29T05:37:39.024Z,15.57
2019-03-29T05:40:07.031Z,14.30
2019-03-29T05:42:34.956Z,16.47
2019-03-29T05:45:03.078Z,13.83
2019-03-29T05:47:31.002Z,13.67
2019-03-29T05:49:59.031Z,13.43
2019-03-29T05:52:26.972Z,17.20
2019-03-29T05:54:54.976Z,17.73
2019-03-29T05:57:22.972Z,16.17
2019-03-29T05:59:50.892Z,13.53
2019-03-29T06:02:18.912Z,12.90
2019-03-29T06:04:46.842Z,13.47
2019-03-29T06:07:14.934Z,16.63
2019-03-29T06:09:42.878Z,15.73
2019-03-29T06:12:11.240Z,12.17
2019-03-29T06:14:39.181Z,13.83
2019-03-29T06:17:07.192Z,11.87
2019-03-29T06:19:35.181Z,12.83
2019-03-29T06:22:03.237Z,11.47
2019-03-29T06:24:31.187Z,11.57
2019-03-29T06:26:59.197Z,13.30
2019-03-29T06:29:27.176Z,11.67
2019-03-29T06:31:55.172Z,10.97
2019-03-29T06:34:23.108Z,11.30
2019-03-29T06:36:51.478Z,10.27
2019-03-29T06:39:24.087Z,11.80
2019-03-29T06:41:52.086Z,11.03
2019-03-29T06:44:20.080Z,10.50
2019-03-29T06:46:48.112Z,10.60
2019-03-29T06:49:16.151Z,13.50
2019-03-29T06:51:44.186Z,10.47
2019-03-29T06:54:12.176Z,9.87
2019-03-29T06:56:40.232Z,10.40
2019-03-29T06:59:08.185Z,10.83
2019-03-29T07:01:36.141Z,9.97
2019-03-29T07:04:04.101Z,11.00
2019-03-29T07:06:32.104Z,8.73
2019-03-29T07:09:00.053Z,11.10
2019-03-29T07:11:28.052Z,9.97
2019-03-29T07:13:57.713Z,13.20
2019-03-29T07:16:25.908Z,10.93
2019-03-29T07:18:54.361Z,10.40
2019-03-29T07:21:22.489Z,11.30
2019-03-29T07:23:50.501Z,10.10
2019-03-29T07:26:18.559Z,10.00
2019-03-29T07:28:46.492Z,9.87
2019-03-29T07:31:14.989Z,10.53
2019-03-29T07:33:42.949Z,9.87
2019-03-29T07:36:10.962Z,10.43
2019-03-29T07:38:38.906Z,9.27
2019-03-29T07:41:06.898Z,11.47
2019-03-29T07:43:34.879Z,10.23
2019-03-29T07:46:02.865Z,10.30
2019-03-29T07:48:30.877Z,9.57
2019-03-29T07:50:58.808Z,11.40
2019-03-29T07:53:26.815Z,10.80
2019-03-29T07:55:54.960Z,10.77
2019-03-29T07:58:23.140Z,9.97
2019-03-29T08:00:51.249Z,10.77
2019-03-29T08:03:21.197Z,13.23
2019-03-29T08:05:49.441Z,10.53
2019-03-29T08:08:24.120Z,13.20
2019-03-29T08:10:47.720Z,11.60
2019-03-29T08:13:16.254Z,13.33
2019-03-29T08:15:44.703Z,11.33
2019-03-29T08:18:13.223Z,11.17
2019-03-29T08:20:44.128Z,11.90
2019-03-29T08:23:11.466Z,10.77
2019-03-29T08:25:39.641Z,11.40
2019-03-29T08:28:08.001Z,12.43
2019-03-29T08:30:36.181Z,11.53
2019-03-29T08:33:04.503Z,10.97
2019-03-29T08:35:32.721Z,10.77
2019-03-29T08:38:00.881Z,10.03
2019-03-29T08:40:29.150Z,10.80
2019-03-29T08:42:57.681Z,12.47
2019-03-29T08:45:26.902Z,10.67
2019-03-29T08:47:55.040Z,13.40
2019-03-29T08:50:23.242Z,9.97
2019-03-29T08:52:51.481Z,10.47
2019-03-29T08:55:19.606Z,10.73
2019-03-29T08:57:47.781Z,11.67
2019-03-29T09:00:23.644Z,8.13
2019-03-29T09:02:51.941Z,7.20
2019-03-29T09:05:20.101Z,7.30
2019-03-29T09:07:48.603Z,7.73
2019-03-29T09:10:23.921Z,8.87
2019-03-29T09:12:52.228Z,7.97
2019-03-29T09:15:20.501Z,7.97
2019-03-29T09:17:48.660Z,8.90
2019-03-29T09:20:16.887Z,9.40
2019-03-29T09:22:45.022Z,8.97
2019-03-29T09:25:13.182Z,10.60
2019-03-29T09:27:41.385Z,7.50
2019-03-29T09:30:10.681Z,7.77
2019-03-29T09:32:38.865Z,8.00
2019-03-29T09:35:07.133Z,8.10
2019-03-29T09:37:35.411Z,9.13
2019-03-29T09:40:03.961Z,8.30
2019-03-29T09:42:32.182Z,9.60
2019-03-29T09:45:00.424Z,10.03
2019-03-29T09:47:34.327Z,8.30
2019-03-29T09:49:58.898Z,9.17
2019-03-29T09:52:27.103Z,9.13
2019-03-29T09:54:55.301Z,9.03
2019-03-29T09:57:36.951Z,9.53
2019-03-29T09:59:53.601Z,8.10
2019-03-29T10:02:21.821Z,10.53
2019-03-29T10:04:50.041Z,9.90
2019-03-29T10:07:18.263Z,11.83
2019-03-29T10:09:46.440Z,9.80
2019-03-29T10:12:14.561Z,8.77
2019-03-29T10:14:42.889Z,9.73
2019-03-29T10:17:11.002Z,9.10
2019-03-29T10:19:39.161Z,9.17
2019-03-29T10:22:07.420Z,8.43
2019-03-29T10:24:35.561Z,9.37
2019-03-29T10:27:03.764Z,9.90
2019-03-29T10:29:32.021Z,10.47
2019-03-29T10:32:00.482Z,9.27
2019-03-29T10:34:28.603Z,9.30
2019-03-29T10:36:56.682Z,10.60
2019-03-29T10:39:26.511Z,10.77
2019-03-29T10:41:54.730Z,12.20
2019-03-29T10:44:22.861Z,12.87
2019-03-29T10:46:51.085Z,10.50
2019-03-29T10:49:19.231Z,13.00
2019-03-29T10:51:47.385Z,9.97
2019-03-29T10:54:15.547Z,11.73
2019-03-29T10:56:43.682Z,10.93
2019-03-29T10:59:26.295Z,11.33
2019-03-29T11:01:42.122Z,13.60
2019-03-29T11:04:10.361Z,9.70
2019-03-29T11:06:38.461Z,12.07
2019-03-29T11:09:07.561Z,11.10
2019-03-29T11:11:35.683Z,10.73
2019-03-29T11:14:03.969Z,11.60
2019-03-29T11:16:32.063Z,9.83
2019-03-29T11:19:01.381Z,11.37
2019-03-29T11:21:29.462Z,10.53
2019-03-29T11:23:57.620Z,10.00
2019-03-29T11:26:25.821Z,11.93
2019-03-29T11:28:53.941Z,10.23
2019-03-29T11:31:25.414Z,10.27
2019-03-29T11:33:52.629Z,13.00
2019-03-29T11:36:20.801Z,10.57
2019-03-29T11:38:49.078Z,13.43
2019-03-29T11:41:17.202Z,12.07
2019-03-29T11:43:45.360Z,10.40
2019-03-29T11:46:13.539Z,9.83
2019-03-29T11:48:41.659Z,10.97
2019-03-29T11:51:19.079Z,9.77
2019-03-29T11:53:40.800Z,12.07
2019-03-29T11:56:09.898Z,11.00
2019-03-29T11:58:38.097Z,10.77
2019-03-29T12:01:06.281Z,13.00
2019-03-29T12:03:34.319Z,12.07
2019-03-29T12:06:02.578Z,11.67
2019-03-29T12:08:30.779Z,13.23
2019-03-29T12:10:59.298Z,11.70
2019-03-29T12:13:40.480Z,12.13
2019-03-29T12:15:57.538Z,13.43
2019-03-29T12:18:25.598Z,12.63
2019-03-29T12:20:54.509Z,13.20
2019-03-29T12:23:22.922Z,12.00
2019-03-29T12:25:51.258Z,13.47
2019-03-29T12:28:19.398Z,12.93
2019-03-29T12:30:47.598Z,11.83
2019-03-29T12:33:15.678Z,10.50
2019-03-29T12:35:43.918Z,11.27
2019-03-29T12:38:12.079Z,12.10
2019-03-29T12:40:40.398Z,12.97
2019-03-29T12:43:08.524Z,15.27
2019-03-29T12:45:36.758Z,12.20
2019-03-29T12:48:04.818Z,10.63
2019-03-29T12:50:33.168Z,14.50
2019-03-29T12:53:01.373Z,13.93
2019-03-29T12:55:29.548Z,10.77
2019-03-29T12:57:57.687Z,11.73
2019-03-29T13:00:25.946Z,12.77
2019-03-29T13:02:54.108Z,12.10
2019-03-29T13:05:22.267Z,12.93
2019-03-29T13:07:53.165Z,11.87
2019-03-29T13:10:20.575Z,10.53
2019-03-29T13:12:48.649Z,10.90
2019-03-29T13:15:16.836Z,12.23
2019-03-29T13:17:45.467Z,14.83
2019-03-29T13:20:13.754Z,13.63
2019-03-29T13:22:41.895Z,12.40
2019-03-29T13:25:11.328Z,12.60
2019-03-29T13:27:39.547Z,10.80
2019-03-29T13:30:09.626Z,11.97
2019-03-29T13:32:37.826Z,13.47
2019-03-29T13:35:07.412Z,12.97
2019-03-29T13:37:35.344Z,17.10
2019-03-29T13:40:04.782Z,12.17
2019-03-29T13:42:32.747Z,11.77
2019-03-29T13:45:00.752Z,12.67
2019-03-29T13:47:29.146Z,12.33
2019-03-29T13:49:57.091Z,14.37
2019-03-29T13:52:25.112Z,13.83
2019-03-29T13:54:53.099Z,11.90
2019-03-29T13:57:21.185Z,13.80
2019-03-29T13:59:49.157Z,11.73
2019-03-29T14:02:17.140Z,11.77
2019-03-29T14:04:45.107Z,10.23
2019-03-29T14:07:13.111Z,12.80
2019-03-29T14:09:41.308Z,12.37
2019-03-29T14:12:09.402Z,11.73
2019-03-29T14:14:38.702Z,12.17
2019-03-29T14:17:06.951Z,14.30
2019-03-29T14:19:34.897Z,11.00
2019-03-29T14:22:02.901Z,12.43
2019-03-29T14:24:31.043Z,12.40
2019-03-29T14:26:59.175Z,11.40
2019-03-29T14:29:28.162Z,13.23
2019-03-29T14:31:56.167Z,12.67
2019-03-29T14:34:24.132Z,12.97
2019-03-29T14:36:52.217Z,12.90
2019-03-29T14:39:22.005Z,12.23
2019-03-29T14:41:52.042Z,12.00
2019-03-29T14:44:22.160Z,11.77
2019-03-29T14:46:53.758Z,10.90
2019-03-29T14:49:21.887Z,13.87
2019-03-29T14:51:49.952Z,11.33
2019-03-29T14:54:20.616Z,12.63
2019-03-29T14:56:51.175Z,12.20
2019-03-29T14:59:19.282Z,11.30
2019-03-29T15:01:48.033Z,12.80
2019-03-29T15:04:18.029Z,12.07
2019-03-29T15:06:46.094Z,12.33
2019-03-29T15:09:14.176Z,11.70
2019-03-29T15:11:43.647Z,10.63
2019-03-29T15:14:12.442Z,11.73
2019-03-29T15:16:42.339Z,10.80
2019-03-29T15:19:10.454Z,11.83
2019-03-29T15:21:39.952Z,9.97
2019-03-29T15:24:08.065Z,12.23
2019-03-29T15:26:36.177Z,11.47
2019-03-29T15:29:04.769Z,12.00
2019-03-29T15:31:32.812Z,12.00
2019-03-29T15:34:00.827Z,11.80
2019-03-29T15:36:28.937Z,11.53
2019-03-29T15:38:57.924Z,12.10
2019-03-29T15:41:27.144Z,10.10
2019-03-29T15:43:55.348Z,11.73
2019-03-29T15:46:23.411Z,11.03
2019-03-29T15:48:51.557Z,10.83
2019-03-29T15:51:21.045Z,11.50
2019-03-29T15:53:49.157Z,14.40
2019-03-29T15:56:17.245Z,13.37
2019-03-29T15:58:45.287Z,12.67
2019-03-29T16:01:13.332Z,12.23
2019-03-29T16:03:41.472Z,11.80
2019-03-29T16:06:09.537Z,11.10
2019-03-29T16:08:37.652Z,12.13
2019-03-29T16:11:08.987Z,13.23
2019-03-29T16:13:35.826Z,14.47
2019-03-29T16:16:03.997Z,14.27
2019-03-29T16:18:32.645Z,14.10
2019-03-29T16:21:00.688Z,13.27
2019-03-29T16:23:28.792Z,12.77
2019-03-29T16:25:57.397Z,14.10
2019-03-29T16:28:26.562Z,17.63
2019-03-29T16:30:54.653Z,14.43
2019-03-29T16:33:22.788Z,16.53
2019-03-29T16:35:50.752Z,14.40
2019-03-29T16:38:18.870Z,15.13
2019-03-29T16:40:46.967Z,15.90
2019-03-29T16:43:15.117Z,15.00
2019-03-29T16:45:48.019Z,15.30
2019-03-29T16:48:13.857Z,14.20
2019-03-29T16:50:42.012Z,16.13
2019-03-29T16:53:10.122Z,15.83
2019-03-29T16:55:38.265Z,14.43
2019-03-29T16:58:06.354Z,14.10
2019-03-29T17:00:34.599Z,18.13
2019-03-29T17:03:02.878Z,15.47
2019-03-29T17:05:32.218Z,15.40
2019-03-29T17:08:00.547Z,14.83
2019-03-29T17:10:28.772Z,15.27
2019-03-29T17:12:56.912Z,14.40
2019-03-29T17:15:25.203Z,14.53
2019-03-29T17:17:53.648Z,15.87
2019-03-29T17:20:21.964Z,15.07
2019-03-29T17:22:59.772Z,15.37
2019-03-29T17:25:28.126Z,14.63
2019-03-29T17:27:56.232Z,15.63
2019-03-29T17:30:38.073Z,14.93
2019-03-29T17:33:06.247Z,13.27
2019-03-29T17:35:34.477Z,14.17
2019-03-29T17:38:02.889Z,14.47
2019-03-29T17:40:31.292Z,14.67
2019-03-29T17:42:59.507Z,14.20
2019-03-29T17:45:27.883Z,13.27
2019-03-29T17:47:56.385Z,14.23
2019-03-29T17:50:25.399Z,14.77
2019-03-29T17:52:53.999Z,13.80
2019-03-29T17:55:22.399Z,13.20
2019-03-29T17:57:50.804Z,12.50
2019-03-29T18:00:21.248Z,11.23
2019-03-29T18:02:49.700Z,16.60
2019-03-29T18:05:18.301Z,15.43
2019-03-29T18:07:47.101Z,10.40
2019-03-29T18:10:17.155Z,13.63
2019-03-29T18:12:45.768Z,13.57
2019-03-29T18:15:14.539Z,24.00
2019-03-29T18:17:42.974Z,21.17
2019-03-29T18:20:11.795Z,40.77
2019-03-29T18:22:40.399Z,34.70
2019-03-29T18:25:09.289Z,23.20
2019-03-29T18:27:38.870Z,24.47
2019-03-29T18:30:07.815Z,29.63
2019-03-29T18:32:36.409Z,37.97
2019-03-29T18:35:05.454Z,32.10
2019-03-29T18:37:33.899Z,30.33
2019-03-29T18:40:02.595Z,25.40
2019-03-29T18:42:31.519Z,36.50
2019-03-29T18:45:02.694Z,43.40
2019-03-29T18:47:31.204Z,50.50
2019-03-29T18:49:59.651Z,46.53
2019-03-29T18:52:28.445Z,33.37
2019-03-29T18:54:56.976Z,34.13
2019-03-29T18:57:25.545Z,40.13
2019-03-29T18:59:53.960Z,36.60
2019-03-29T19:02:22.476Z,53.67
2019-03-29T19:04:51.034Z,53.63
2019-03-29T19:07:27.674Z,35.40
2019-03-29T19:09:56.202Z,25.63
2019-03-29T19:12:24.689Z,43.37
2019-03-29T19:14:53.212Z,46.63
2019-03-29T19:17:21.705Z,40.73
2019-03-29T19:19:51.484Z,55.93
2019-03-29T19:22:20.119Z,49.43
2019-03-29T19:24:48.679Z,44.00
2019-03-29T19:27:17.078Z,31.33
2019-03-29T19:29:46.289Z,28.20
2019-03-29T19:32:14.799Z,28.37
2019-03-29T19:34:43.244Z,17.00
2019-03-29T19:37:11.643Z,22.03
2019-03-29T19:39:40.226Z,24.73
2019-03-29T19:42:08.719Z,31.37
2019-03-29T19:44:37.289Z,39.27
2019-03-29T19:47:13.328Z,66.47
2019-03-29T19:49:36.140Z,54.37
2019-03-29T19:52:04.699Z,44.33
2019-03-29T19:54:33.219Z,38.90
2019-03-29T19:57:01.834Z,30.00
2019-03-29T19:59:30.375Z,32.40
2019-03-29T20:01:59.044Z,35.23
2019-03-29T20:04:27.525Z,38.40
2019-03-29T20:06:56.049Z,33.63
2019-03-29T20:09:24.540Z,25.80
2019-03-29T20:11:53.107Z,36.50
2019-03-29T20:14:21.635Z,33.00
2019-03-29T20:16:50.184Z,31.07
2019-03-29T20:19:20.226Z,27.90
2019-03-29T20:21:48.759Z,35.43
2019-03-29T20:24:17.285Z,30.63
2019-03-29T20:26:47.274Z,36.77
2019-03-29T20:29:15.857Z,26.70
2019-03-29T20:31:44.430Z,27.50
2019-03-29T20:34:12.905Z,22.27
2019-03-29T20:36:41.418Z,27.90
2019-03-29T20:39:09.925Z,28.70
2019-03-29T20:41:38.377Z,32.47
2019-03-29T20:44:06.785Z,32.53
2019-03-29T20:46:35.309Z,26.10
2019-03-29T20:49:03.700Z,30.27
2019-03-29T20:51:32.239Z,26.30
2019-03-29T20:54:00.662Z,25.70
2019-03-29T20:56:29.215Z,31.73
2019-03-29T20:58:57.634Z,26.20
2019-03-29T21:01:26.175Z,28.87
2019-03-29T21:03:54.745Z,23.30
2019-03-29T21:06:23.264Z,21.87
2019-03-29T21:08:51.674Z,24.33
2019-03-29T21:11:20.235Z,25.43
2019-03-29T21:13:48.884Z,28.40
2019-03-29T21:16:17.545Z,32.00
2019-03-29T21:18:46.715Z,28.63
2019-03-29T21:21:15.240Z,27.47
2019-03-29T21:23:47.035Z,30.40
2019-03-29T21:26:13.820Z,26.93
2019-03-29T21:28:42.275Z,28.30
2019-03-29T21:31:10.815Z,33.10
2019-03-29T21:33:40.956Z,27.33
2019-03-29T21:36:09.669Z,20.27
2019-03-29T21:38:37.985Z,23.23
2019-03-29T21:41:06.420Z,22.97
2019-03-29T21:43:34.544Z,21.37
2019-03-29T21:46:02.805Z,20.03
2019-03-29T21:48:31.009Z,22.83
2019-03-29T21:50:59.113Z,21.00
2019-03-29T21:53:27.344Z,24.37
2019-03-29T21:55:55.590Z,22.03
2019-03-29T21:58:23.728Z,21.83
2019-03-29T22:00:51.920Z,23.50
2019-03-29T22:03:20.060Z,25.13
2019-03-29T22:05:48.145Z,22.83
2019-03-29T22:08:17.963Z,24.87
2019-03-29T22:10:46.022Z,29.03
2019-03-29T22:13:14.050Z,27.17
2019-03-29T22:15:41.964Z,23.90
2019-03-29T22:18:09.961Z,16.87
2019-03-29T22:20:37.889Z,23.87
2019-03-29T22:23:05.895Z,23.27
2019-03-29T22:25:33.840Z,26.57
2019-03-29T22:28:01.829Z,22.90
2019-03-29T22:30:29.815Z,23.77
2019-03-29T22:32:57.834Z,22.63
2019-03-29T22:35:25.835Z,21.87
2019-03-29T22:37:53.822Z,22.80
2019-03-29T22:40:21.765Z,21.90
2019-03-29T22:42:49.750Z,22.20
2019-03-29T22:45:17.724Z,19.97
2019-03-29T22:47:45.706Z,25.10
2019-03-29T22:50:13.755Z,26.87
2019-03-29T22:52:41.739Z,19.37
2019-03-29T22:55:09.777Z,22.77
2019-03-29T22:57:37.831Z,22.77
2019-03-29T23:00:09.855Z,21.30
2019-03-29T23:02:37.939Z,21.70
2019-03-29T23:05:06.780Z,22.60
2019-03-29T23:07:34.764Z,21.77
2019-03-29T23:10:03.056Z,24.50
2019-03-29T23:12:32.057Z,26.13
2019-03-29T23:15:00.007Z,26.97
2019-03-29T23:17:27.997Z,24.83
2019-03-29T23:19:55.922Z,26.57
2019-03-29T23:22:23.961Z,28.23
2019-03-29T23:24:51.892Z,24.83
2019-03-29T23:27:19.907Z,24.40
2019-03-29T23:29:47.861Z,25.43
2019-03-29T23:32:15.831Z,23.80
2019-03-29T23:34:43.747Z,25.87
2019-03-29T23:37:11.693Z,30.80
2019-03-29T23:39:39.711Z,28.63
2019-03-29T23:42:07.687Z,29.57
2019-03-29T23:44:35.711Z,30.37
2019-03-29T23:47:03.674Z,25.40
2019-03-29T23:49:31.686Z,26.27
2019-03-29T23:51:59.647Z,21.47
2019-03-29T23:54:27.646Z,24.80
2019-03-29T23:56:55.653Z,25.50
2019-03-29T23:59:23.651Z,26.30
